sensor_id;sensor_type;location;lat;lon;timestamp;pressure;altitude;pressure_sealevel;temperature;humidity
4022;BME280;2025;48.260;16.432;2023-08-30T00:01:09;98881.59;;;14.68;84.81
4022;BME280;2025;48.260;16.432;2023-08-30T00:03:38;98881.00;;;14.66;85.16
4022;BME280;2025;48.260;16.432;2023-08-30T00:06:05;98880.78;;;14.68;84.68
4022;BME280;2025;48.260;16.432;2023-08-30T00:08:32;98885.88;;;14.69;84.31
4022;BME280;2025;48.260;16.432;2023-08-30T00:10:59;98883.44;;;14.68;84.53
4022;BME280;2025;48.260;16.432;2023-08-30T00:13:29;98884.03;;;14.70;84.46
4022;BME280;2025;48.260;16.432;2023-08-30T00:15:57;98873.38;;;14.77;84.18
4022;BME280;2025;48.260;16.432;2023-08-30T00:18:23;98876.88;;;14.70;84.87
4022;BME280;2025;48.260;16.432;2023-08-30T00:20:52;98863.56;;;14.77;84.02
4022;BME280;2025;48.260;16.432;2023-08-30T00:23:20;98864.22;;;14.72;84.32
4022;BME280;2025;48.260;16.432;2023-08-30T00:25:46;98865.22;;;14.78;84.08
4022;BME280;2025;48.260;16.432;2023-08-30T00:28:14;98858.06;;;14.79;84.68
4022;BME280;2025;48.260;16.432;2023-08-30T00:30:41;98855.78;;;14.82;84.64
4022;BME280;2025;48.260;16.432;2023-08-30T00:33:08;98852.31;;;14.82;84.22
4022;BME280;2025;48.260;16.432;2023-08-30T00:35:35;98853.41;;;14.74;84.52
4022;BME280;2025;48.260;16.432;2023-08-30T00:38:03;98856.00;;;14.81;84.31
4022;BME280;2025;48.260;16.432;2023-08-30T00:40:38;98867.25;;;14.76;85.03
4022;BME280;2025;48.260;16.432;2023-08-30T00:43:05;98879.13;;;14.73;84.96
4022;BME280;2025;48.260;16.432;2023-08-30T00:45:32;98881.16;;;14.71;84.91
4022;BME280;2025;48.260;16.432;2023-08-30T00:47:59;98885.22;;;14.74;85.20
4022;BME280;2025;48.260;16.432;2023-08-30T00:50:26;98899.28;;;14.74;85.37
4022;BME280;2025;48.260;16.432;2023-08-30T00:52:53;98893.38;;;14.72;85.19
4022;BME280;2025;48.260;16.432;2023-08-30T00:55:22;98897.38;;;14.82;84.63
4022;BME280;2025;48.260;16.432;2023-08-30T00:57:49;98899.44;;;14.80;85.16
4022;BME280;2025;48.260;16.432;2023-08-30T01:00:16;98897.38;;;14.82;84.57
4022;BME280;2025;48.260;16.432;2023-08-30T01:02:45;98897.63;;;14.80;84.54
4022;BME280;2025;48.260;16.432;2023-08-30T01:05:12;98898.56;;;14.86;84.38
4022;BME280;2025;48.260;16.432;2023-08-30T01:07:40;98889.56;;;14.87;84.43
4022;BME280;2025;48.260;16.432;2023-08-30T01:10:07;98893.91;;;14.81;84.35
4022;BME280;2025;48.260;16.432;2023-08-30T01:12:39;98896.56;;;14.81;84.57
4022;BME280;2025;48.260;16.432;2023-08-30T01:15:11;98896.38;;;14.83;85.33
4022;BME280;2025;48.260;16.432;2023-08-30T01:17:41;98897.63;;;14.80;84.79
4022;BME280;2025;48.260;16.432;2023-08-30T01:20:10;98903.47;;;14.82;85.02
4022;BME280;2025;48.260;16.432;2023-08-30T01:22:47;98910.56;;;14.88;84.54
4022;BME280;2025;48.260;16.432;2023-08-30T01:25:27;98907.13;;;14.88;84.08
4022;BME280;2025;48.260;16.432;2023-08-30T01:28:01;98902.84;;;14.87;84.32
4022;BME280;2025;48.260;16.432;2023-08-30T01:30:31;98906.88;;;14.89;83.89
4022;BME280;2025;48.260;16.432;2023-08-30T01:33:00;98891.56;;;14.91;83.31
4022;BME280;2025;48.260;16.432;2023-08-30T01:35:28;98890.78;;;14.91;83.39
4022;BME280;2025;48.260;16.432;2023-08-30T01:37:59;98900.13;;;14.93;84.22
4022;BME280;2025;48.260;16.432;2023-08-30T01:40:28;98900.38;;;14.92;83.64
4022;BME280;2025;48.260;16.432;2023-08-30T01:42:56;98896.66;;;14.93;83.03
4022;BME280;2025;48.260;16.432;2023-08-30T01:45:26;98910.13;;;14.91;83.51
4022;BME280;2025;48.260;16.432;2023-08-30T01:47:54;98920.47;;;15.00;83.10
4022;BME280;2025;48.260;16.432;2023-08-30T01:50:23;98925.97;;;14.98;82.84
4022;BME280;2025;48.260;16.432;2023-08-30T01:52:52;98928.22;;;15.01;83.28
4022;BME280;2025;48.260;16.432;2023-08-30T01:55:21;98927.84;;;14.98;83.12
4022;BME280;2025;48.260;16.432;2023-08-30T01:57:49;98927.84;;;14.98;82.98
4022;BME280;2025;48.260;16.432;2023-08-30T02:00:16;98924.59;;;14.95;83.10
4022;BME280;2025;48.260;16.432;2023-08-30T02:02:45;98911.91;;;14.98;82.69
4022;BME280;2025;48.260;16.432;2023-08-30T02:05:12;98908.88;;;14.94;82.73
4022;BME280;2025;48.260;16.432;2023-08-30T02:07:43;98910.06;;;14.98;82.13
4022;BME280;2025;48.260;16.432;2023-08-30T02:10:20;98904.47;;;14.88;83.02
4022;BME280;2025;48.260;16.432;2023-08-30T02:12:49;98916.31;;;14.85;84.02
4022;BME280;2025;48.260;16.432;2023-08-30T02:15:19;98909.44;;;14.78;85.04
4022;BME280;2025;48.260;16.432;2023-08-30T02:17:48;98911.72;;;14.74;85.69
4022;BME280;2025;48.260;16.432;2023-08-30T02:20:16;98918.69;;;14.68;85.79
4022;BME280;2025;48.260;16.432;2023-08-30T02:22:43;98919.16;;;14.59;86.07
4022;BME280;2025;48.260;16.432;2023-08-30T02:25:10;98914.72;;;14.59;86.45
4022;BME280;2025;48.260;16.432;2023-08-30T02:27:37;98918.00;;;14.54;86.90
4022;BME280;2025;48.260;16.432;2023-08-30T02:30:05;98921.84;;;14.52;87.51
4022;BME280;2025;48.260;16.432;2023-08-30T02:32:32;98914.31;;;14.56;87.43
4022;BME280;2025;48.260;16.432;2023-08-30T02:35:02;98915.53;;;14.53;87.66
4022;BME280;2025;48.260;16.432;2023-08-30T02:37:29;98918.41;;;14.45;88.49
4022;BME280;2025;48.260;16.432;2023-08-30T02:39:56;98917.56;;;14.51;88.34
4022;BME280;2025;48.260;16.432;2023-08-30T02:42:23;98909.06;;;14.42;87.92
4022;BME280;2025;48.260;16.432;2023-08-30T02:44:51;98909.50;;;14.39;87.85
4022;BME280;2025;48.260;16.432;2023-08-30T02:47:18;98912.78;;;14.34;88.40
4022;BME280;2025;48.260;16.432;2023-08-30T02:49:45;98909.13;;;14.36;88.36
4022;BME280;2025;48.260;16.432;2023-08-30T02:52:13;98914.84;;;14.32;88.77
4022;BME280;2025;48.260;16.432;2023-08-30T02:54:40;98910.00;;;14.29;88.52
4022;BME280;2025;48.260;16.432;2023-08-30T02:57:08;98891.59;;;14.34;88.73
4022;BME280;2025;48.260;16.432;2023-08-30T02:59:35;98890.00;;;14.33;88.92
4022;BME280;2025;48.260;16.432;2023-08-30T03:02:02;98890.81;;;14.34;87.99
4022;BME280;2025;48.260;16.432;2023-08-30T03:04:29;98880.22;;;14.34;87.86
4022;BME280;2025;48.260;16.432;2023-08-30T03:06:56;98876.31;;;14.37;88.20
4022;BME280;2025;48.260;16.432;2023-08-30T03:09:24;98874.03;;;14.40;87.74
4022;BME280;2025;48.260;16.432;2023-08-30T03:11:51;98856.91;;;14.43;87.51
4022;BME280;2025;48.260;16.432;2023-08-30T03:14:18;98862.59;;;14.46;87.60
4022;BME280;2025;48.260;16.432;2023-08-30T03:16:45;98863.22;;;14.42;87.83
4022;BME280;2025;48.260;16.432;2023-08-30T03:19:12;98863.19;;;14.48;87.10
4022;BME280;2025;48.260;16.432;2023-08-30T03:21:42;98856.03;;;14.49;87.61
4022;BME280;2025;48.260;16.432;2023-08-30T03:24:09;98855.44;;;14.47;88.54
4022;BME280;2025;48.260;16.432;2023-08-30T03:26:37;98854.63;;;14.46;88.81
4022;BME280;2025;48.260;16.432;2023-08-30T03:29:06;98861.63;;;14.41;88.65
4022;BME280;2025;48.260;16.432;2023-08-30T03:31:33;98853.69;;;14.41;88.92
4022;BME280;2025;48.260;16.432;2023-08-30T03:34:00;98855.09;;;14.43;88.60
4022;BME280;2025;48.260;16.432;2023-08-30T03:36:28;98861.03;;;14.39;89.13
4022;BME280;2025;48.260;16.432;2023-08-30T03:38:55;98868.81;;;14.33;89.35
4022;BME280;2025;48.260;16.432;2023-08-30T03:41:21;98885.50;;;14.34;89.43
4022;BME280;2025;48.260;16.432;2023-08-30T03:43:50;98887.75;;;14.30;89.37
4022;BME280;2025;48.260;16.432;2023-08-30T03:46:17;98900.16;;;14.37;89.25
4022;BME280;2025;48.260;16.432;2023-08-30T03:48:44;98893.66;;;14.32;88.30
4022;BME280;2025;48.260;16.432;2023-08-30T03:51:11;98894.84;;;14.37;88.76
4022;BME280;2025;48.260;16.432;2023-08-30T03:53:38;98898.94;;;14.32;88.39
4022;BME280;2025;48.260;16.432;2023-08-30T03:56:05;98889.72;;;14.42;87.90
4022;BME280;2025;48.260;16.432;2023-08-30T03:58:33;98888.69;;;14.43;87.32
4022;BME280;2025;48.260;16.432;2023-08-30T04:01:01;98892.56;;;14.40;87.31
4022;BME280;2025;48.260;16.432;2023-08-30T04:03:28;98894.81;;;14.43;87.06
4022;BME280;2025;48.260;16.432;2023-08-30T04:05:55;98900.75;;;14.39;87.23
4022;BME280;2025;48.260;16.432;2023-08-30T04:08:23;98900.31;;;14.42;87.18
4022;BME280;2025;48.260;16.432;2023-08-30T04:10:52;98903.13;;;14.47;86.59
4022;BME280;2025;48.260;16.432;2023-08-30T04:13:19;98895.97;;;14.47;86.54
4022;BME280;2025;48.260;16.432;2023-08-30T04:15:46;98900.72;;;14.45;86.52
4022;BME280;2025;48.260;16.432;2023-08-30T04:18:14;98904.38;;;14.44;86.74
4022;BME280;2025;48.260;16.432;2023-08-30T04:20:43;98908.69;;;14.39;86.39
4022;BME280;2025;48.260;16.432;2023-08-30T04:23:10;98912.75;;;14.41;86.74
4022;BME280;2025;48.260;16.432;2023-08-30T04:25:38;98914.59;;;14.41;86.84
4022;BME280;2025;48.260;16.432;2023-08-30T04:28:05;98912.91;;;14.46;86.84
4022;BME280;2025;48.260;16.432;2023-08-30T04:30:32;98912.13;;;14.46;87.21
4022;BME280;2025;48.260;16.432;2023-08-30T04:32:59;98916.84;;;14.37;86.91
4022;BME280;2025;48.260;16.432;2023-08-30T04:35:29;98912.00;;;14.34;87.48
4022;BME280;2025;48.260;16.432;2023-08-30T04:37:57;98914.41;;;14.36;87.67
4022;BME280;2025;48.260;16.432;2023-08-30T04:40:25;98919.94;;;14.34;88.31
4022;BME280;2025;48.260;16.432;2023-08-30T04:42:52;98928.50;;;14.36;88.54
4022;BME280;2025;48.260;16.432;2023-08-30T04:45:19;98931.16;;;14.29;88.61
4022;BME280;2025;48.260;16.432;2023-08-30T04:47:45;98930.91;;;14.38;88.23
4022;BME280;2025;48.260;16.432;2023-08-30T04:50:13;98940.31;;;14.33;88.64
4022;BME280;2025;48.260;16.432;2023-08-30T04:52:41;98947.66;;;14.31;88.90
4022;BME280;2025;48.260;16.432;2023-08-30T04:55:09;98941.72;;;14.36;88.17
4022;BME280;2025;48.260;16.432;2023-08-30T04:57:36;98952.31;;;14.36;88.64
4022;BME280;2025;48.260;16.432;2023-08-30T05:00:04;98952.50;;;14.41;88.27
4022;BME280;2025;48.260;16.432;2023-08-30T05:02:31;98953.13;;;14.37;88.51
4022;BME280;2025;48.260;16.432;2023-08-30T05:04:58;98940.22;;;14.47;88.85
4022;BME280;2025;48.260;16.432;2023-08-30T05:07:25;98940.22;;;14.47;87.79
4022;BME280;2025;48.260;16.432;2023-08-30T05:09:54;98942.41;;;14.57;86.82
4022;BME280;2025;48.260;16.432;2023-08-30T05:12:21;98944.06;;;14.58;87.20
4022;BME280;2025;48.260;16.432;2023-08-30T05:14:48;98938.56;;;14.52;87.44
4022;BME280;2025;48.260;16.432;2023-08-30T05:17:14;98931.81;;;14.57;87.35
4022;BME280;2025;48.260;16.432;2023-08-30T05:19:41;98938.75;;;14.58;87.85
4022;BME280;2025;48.260;16.432;2023-08-30T05:22:08;98945.91;;;14.57;87.56
4022;BME280;2025;48.260;16.432;2023-08-30T05:24:35;98944.50;;;14.54;87.14
4022;BME280;2025;48.260;16.432;2023-08-30T05:27:04;98944.66;;;14.60;87.70
4022;BME280;2025;48.260;16.432;2023-08-30T05:29:31;98940.81;;;14.56;86.76
4022;BME280;2025;48.260;16.432;2023-08-30T05:31:58;98942.81;;;14.53;87.59
4022;BME280;2025;48.260;16.432;2023-08-30T05:34:25;98950.41;;;14.50;87.75
4022;BME280;2025;48.260;16.432;2023-08-30T05:36:52;98951.81;;;14.59;87.99
4022;BME280;2025;48.260;16.432;2023-08-30T05:39:19;98961.53;;;14.65;86.80
4022;BME280;2025;48.260;16.432;2023-08-30T05:41:46;98956.56;;;14.75;86.51
4022;BME280;2025;48.260;16.432;2023-08-30T05:44:14;98945.53;;;14.79;87.62
4022;BME280;2025;48.260;16.432;2023-08-30T05:46:41;98941.63;;;14.81;86.01
4022;BME280;2025;48.260;16.432;2023-08-30T05:49:08;98953.84;;;14.82;86.36
4022;BME280;2025;48.260;16.432;2023-08-30T05:51:35;98951.53;;;14.92;85.12
4022;BME280;2025;48.260;16.432;2023-08-30T05:54:03;98958.69;;;14.92;84.95
4022;BME280;2025;48.260;16.432;2023-08-30T05:56:30;98957.81;;;14.98;83.93
4022;BME280;2025;48.260;16.432;2023-08-30T05:58:57;98952.13;;;14.94;84.19
4022;BME280;2025;48.260;16.432;2023-08-30T06:01:25;98957.75;;;15.05;83.97
4022;BME280;2025;48.260;16.432;2023-08-30T06:03:52;98964.44;;;15.07;84.34
4022;BME280;2025;48.260;16.432;2023-08-30T06:06:20;98958.28;;;15.13;82.47
4022;BME280;2025;48.260;16.432;2023-08-30T06:08:47;98967.31;;;15.06;83.68
4022;BME280;2025;48.260;16.432;2023-08-30T06:11:14;98960.34;;;15.11;83.70
4022;BME280;2025;48.260;16.432;2023-08-30T06:13:41;98956.44;;;15.14;82.45
4022;BME280;2025;48.260;16.432;2023-08-30T06:16:08;98962.56;;;15.14;82.31
4022;BME280;2025;48.260;16.432;2023-08-30T06:18:37;98968.31;;;15.11;82.43
4022;BME280;2025;48.260;16.432;2023-08-30T06:21:03;98972.31;;;15.21;82.34
4022;BME280;2025;48.260;16.432;2023-08-30T06:23:30;98969.59;;;15.27;81.67
4022;BME280;2025;48.260;16.432;2023-08-30T06:25:58;98972.34;;;15.39;81.43
4022;BME280;2025;48.260;16.432;2023-08-30T06:28:25;98965.84;;;15.35;80.98
4022;BME280;2025;48.260;16.432;2023-08-30T06:30:52;98974.91;;;15.46;80.88
4022;BME280;2025;48.260;16.432;2023-08-30T06:33:19;98964.06;;;15.47;81.61
4022;BME280;2025;48.260;16.432;2023-08-30T06:35:49;98967.03;;;15.57;80.71
4022;BME280;2025;48.260;16.432;2023-08-30T06:38:16;98968.13;;;15.68;79.50
4022;BME280;2025;48.260;16.432;2023-08-30T06:40:44;98966.97;;;15.83;79.11
4022;BME280;2025;48.260;16.432;2023-08-30T06:43:11;98966.38;;;15.99;80.91
4022;BME280;2025;48.260;16.432;2023-08-30T06:45:39;98968.19;;;16.17;77.08
4022;BME280;2025;48.260;16.432;2023-08-30T06:48:06;98959.50;;;16.10;76.53
4022;BME280;2025;48.260;16.432;2023-08-30T06:50:34;98970.00;;;16.35;77.42
4022;BME280;2025;48.260;16.432;2023-08-30T06:53:03;98966.44;;;16.41;75.37
4022;BME280;2025;48.260;16.432;2023-08-30T06:55:30;98968.19;;;16.47;76.10
4022;BME280;2025;48.260;16.432;2023-08-30T06:57:57;98968.72;;;16.37;74.27
4022;BME280;2025;48.260;16.432;2023-08-30T07:00:24;98963.53;;;16.42;75.59
4022;BME280;2025;48.260;16.432;2023-08-30T07:02:51;98970.59;;;16.37;75.74
4022;BME280;2025;48.260;16.432;2023-08-30T07:05:18;98956.22;;;16.26;74.59
4022;BME280;2025;48.260;16.432;2023-08-30T07:07:45;98961.75;;;16.25;75.63
4022;BME280;2025;48.260;16.432;2023-08-30T07:10:13;98968.59;;;16.32;76.50
4022;BME280;2025;48.260;16.432;2023-08-30T07:12:40;98966.63;;;16.28;75.35
4022;BME280;2025;48.260;16.432;2023-08-30T07:15:08;98955.19;;;16.27;74.90
4022;BME280;2025;48.260;16.432;2023-08-30T07:17:35;98959.75;;;16.20;75.74
4022;BME280;2025;48.260;16.432;2023-08-30T07:20:02;98969.09;;;16.11;75.61
4022;BME280;2025;48.260;16.432;2023-08-30T07:22:31;98969.19;;;16.34;77.25
4022;BME280;2025;48.260;16.432;2023-08-30T07:24:58;98964.13;;;16.44;74.96
4022;BME280;2025;48.260;16.432;2023-08-30T07:27:26;98970.47;;;16.32;75.44
4022;BME280;2025;48.260;16.432;2023-08-30T07:29:54;98971.34;;;16.26;75.12
4022;BME280;2025;48.260;16.432;2023-08-30T07:32:20;98972.16;;;16.26;76.06
4022;BME280;2025;48.260;16.432;2023-08-30T07:34:47;98962.41;;;16.20;76.43
4022;BME280;2025;48.260;16.432;2023-08-30T07:37:19;98967.59;;;16.15;76.24
4022;BME280;2025;48.260;16.432;2023-08-30T07:39:46;98975.88;;;16.07;75.81
4022;BME280;2025;48.260;16.432;2023-08-30T07:42:13;98978.69;;;15.93;76.98
4022;BME280;2025;48.260;16.432;2023-08-30T07:44:42;98976.84;;;15.94;77.77
4022;BME280;2025;48.260;16.432;2023-08-30T07:47:09;98968.47;;;15.97;79.02
4022;BME280;2025;48.260;16.432;2023-08-30T07:49:36;98968.50;;;16.09;78.15
4022;BME280;2025;48.260;16.432;2023-08-30T07:52:03;98973.38;;;16.12;76.77
4022;BME280;2025;48.260;16.432;2023-08-30T07:54:31;98979.09;;;16.27;76.64
4022;BME280;2025;48.260;16.432;2023-08-30T07:56:58;98972.44;;;16.36;75.89
4022;BME280;2025;48.260;16.432;2023-08-30T07:59:25;98981.47;;;16.47;76.79
4022;BME280;2025;48.260;16.432;2023-08-30T08:01:54;98982.78;;;16.56;76.43
4022;BME280;2025;48.260;16.432;2023-08-30T08:04:21;98988.25;;;16.73;75.44
4022;BME280;2025;48.260;16.432;2023-08-30T08:06:48;98985.41;;;16.87;73.84
4022;BME280;2025;48.260;16.432;2023-08-30T08:09:15;98986.69;;;16.84;73.40
4022;BME280;2025;48.260;16.432;2023-08-30T08:11:42;98978.59;;;16.91;75.67
4022;BME280;2025;48.260;16.432;2023-08-30T08:14:10;98985.31;;;16.93;74.65
4022;BME280;2025;48.260;16.432;2023-08-30T08:16:37;98993.28;;;16.93;73.25
4022;BME280;2025;48.260;16.432;2023-08-30T08:19:05;99000.81;;;16.96;72.08
4022;BME280;2025;48.260;16.432;2023-08-30T08:21:32;99001.16;;;17.00;74.45
4022;BME280;2025;48.260;16.432;2023-08-30T08:23:59;98998.84;;;17.03;74.91
4022;BME280;2025;48.260;16.432;2023-08-30T08:26:26;99004.16;;;17.03;nan
4022;BME280;2025;48.260;16.432;2023-08-30T08:28:53;99006.91;;;16.85;72.65
4022;BME280;2025;48.260;16.432;2023-08-30T08:31:21;99013.56;;;16.76;72.70
4022;BME280;2025;48.260;16.432;2023-08-30T08:33:51;99020.22;;;16.97;72.60
4022;BME280;2025;48.260;16.432;2023-08-30T08:36:22;99017.25;;;17.05;72.69
4022;BME280;2025;48.260;16.432;2023-08-30T08:38:49;99012.63;;;17.24;72.91
4022;BME280;2025;48.260;16.432;2023-08-30T08:41:16;99020.19;;;17.51;72.08
4022;BME280;2025;48.260;16.432;2023-08-30T08:43:43;99020.03;;;17.57;70.38
4022;BME280;2025;48.260;16.432;2023-08-30T08:46:13;99019.78;;;17.70;69.51
4022;BME280;2025;48.260;16.432;2023-08-30T08:48:43;99022.81;;;17.86;72.60
4022;BME280;2025;48.260;16.432;2023-08-30T08:51:12;99017.72;;;17.73;69.60
4022;BME280;2025;48.260;16.432;2023-08-30T08:53:41;99028.84;;;17.93;71.37
4022;BME280;2025;48.260;16.432;2023-08-30T08:56:09;99022.81;;;17.98;69.53
4022;BME280;2025;48.260;16.432;2023-08-30T08:58:36;99019.47;;;17.90;69.34
4022;BME280;2025;48.260;16.432;2023-08-30T09:01:04;99019.69;;;17.89;68.44
4022;BME280;2025;48.260;16.432;2023-08-30T09:03:33;99020.25;;;17.91;68.42
4022;BME280;2025;48.260;16.432;2023-08-30T09:06:02;99022.44;;;17.94;67.54
4022;BME280;2025;48.260;16.432;2023-08-30T09:08:29;99035.88;;;17.87;68.13
4022;BME280;2025;48.260;16.432;2023-08-30T09:10:58;99024.09;;;17.72;67.79
4022;BME280;2025;48.260;16.432;2023-08-30T09:13:25;99021.88;;;17.68;67.45
4022;BME280;2025;48.260;16.432;2023-08-30T09:15:52;99022.19;;;18.07;66.96
4022;BME280;2025;48.260;16.432;2023-08-30T09:18:19;99028.88;;;18.22;66.65
4022;BME280;2025;48.260;16.432;2023-08-30T09:20:46;99020.88;;;18.22;67.07
4022;BME280;2025;48.260;16.432;2023-08-30T09:23:19;99030.16;;;18.19;66.06
4022;BME280;2025;48.260;16.432;2023-08-30T09:25:47;99032.50;;;18.44;65.74
4022;BME280;2025;48.260;16.432;2023-08-30T09:28:15;99038.88;;;18.43;66.12
4022;BME280;2025;48.260;16.432;2023-08-30T09:30:49;99046.09;;;18.60;66.10
4022;BME280;2025;48.260;16.432;2023-08-30T09:33:20;99042.19;;;18.50;65.84
4022;BME280;2025;48.260;16.432;2023-08-30T09:35:47;99042.06;;;18.57;64.52
4022;BME280;2025;48.260;16.432;2023-08-30T09:38:17;99039.97;;;18.59;65.22
4022;BME280;2025;48.260;16.432;2023-08-30T09:40:44;99046.00;;;18.54;66.66
4022;BME280;2025;48.260;16.432;2023-08-30T09:43:12;99052.78;;;18.45;65.24
4022;BME280;2025;48.260;16.432;2023-08-30T09:45:41;99050.25;;;18.39;64.46
4022;BME280;2025;48.260;16.432;2023-08-30T09:48:08;99042.56;;;18.14;64.59
4022;BME280;2025;48.260;16.432;2023-08-30T09:50:36;99044.06;;;18.21;66.20
4022;BME280;2025;48.260;16.432;2023-08-30T09:53:06;99046.25;;;18.24;64.85
4022;BME280;2025;48.260;16.432;2023-08-30T09:55:35;99046.91;;;18.31;66.32
4022;BME280;2025;48.260;16.432;2023-08-30T09:58:02;99048.88;;;18.36;65.22
4022;BME280;2025;48.260;16.432;2023-08-30T10:00:30;99046.78;;;18.38;65.45
4022;BME280;2025;48.260;16.432;2023-08-30T10:02:59;99046.81;;;18.55;64.96
4022;BME280;2025;48.260;16.432;2023-08-30T10:05:27;99041.84;;;18.75;64.70
4022;BME280;2025;48.260;16.432;2023-08-30T10:07:56;99040.78;;;18.88;62.66
4022;BME280;2025;48.260;16.432;2023-08-30T10:10:23;99042.97;;;19.08;62.83
4022;BME280;2025;48.260;16.432;2023-08-30T10:12:51;99041.03;;;19.37;62.43
4022;BME280;2025;48.260;16.432;2023-08-30T10:15:21;99050.69;;;19.22;63.23
4022;BME280;2025;48.260;16.432;2023-08-30T10:17:53;99050.34;;;19.01;61.45
4022;BME280;2025;48.260;16.432;2023-08-30T10:20:22;99041.41;;;18.79;62.74
4022;BME280;2025;48.260;16.432;2023-08-30T10:22:51;99047.72;;;18.89;62.20
4022;BME280;2025;48.260;16.432;2023-08-30T10:25:22;99038.13;;;19.05;61.13
4022;BME280;2025;48.260;16.432;2023-08-30T10:27:51;99040.81;;;19.05;62.87
4022;BME280;2025;48.260;16.432;2023-08-30T10:30:20;99033.97;;;18.81;61.71
4022;BME280;2025;48.260;16.432;2023-08-30T10:32:48;99041.56;;;18.72;62.17
4022;BME280;2025;48.260;16.432;2023-08-30T10:35:17;99034.75;;;18.93;61.83
4022;BME280;2025;48.260;16.432;2023-08-30T10:37:55;99028.19;;;19.01;60.77
4022;BME280;2025;48.260;16.432;2023-08-30T10:40:22;99028.97;;;19.18;63.31
4022;BME280;2025;48.260;16.432;2023-08-30T10:42:59;99018.97;;;19.42;63.89
4022;BME280;2025;48.260;16.432;2023-08-30T10:45:26;99025.06;;;19.59;60.20
4022;BME280;2025;48.260;16.432;2023-08-30T10:47:57;99022.09;;;19.56;58.35
4022;BME280;2025;48.260;16.432;2023-08-30T10:50:28;99026.75;;;19.66;58.74
4022;BME280;2025;48.260;16.432;2023-08-30T10:52:57;99023.56;;;19.47;61.33
4022;BME280;2025;48.260;16.432;2023-08-30T10:55:25;99018.97;;;19.42;59.78
4022;BME280;2025;48.260;16.432;2023-08-30T10:58:00;99021.41;;;19.66;60.43
4022;BME280;2025;48.260;16.432;2023-08-30T11:00:28;99026.06;;;19.70;59.77
4022;BME280;2025;48.260;16.432;2023-08-30T11:02:56;99035.25;;;19.63;59.15
4022;BME280;2025;48.260;16.432;2023-08-30T11:05:24;99030.84;;;19.51;59.71
4022;BME280;2025;48.260;16.432;2023-08-30T11:07:52;99031.47;;;19.58;58.44
4022;BME280;2025;48.260;16.432;2023-08-30T11:10:21;99027.34;;;19.51;60.18
4022;BME280;2025;48.260;16.432;2023-08-30T11:12:48;99023.78;;;19.45;59.91
4022;BME280;2025;48.260;16.432;2023-08-30T11:15:16;99026.53;;;19.50;59.56
4022;BME280;2025;48.260;16.432;2023-08-30T11:17:43;99026.88;;;19.54;58.78
4022;BME280;2025;48.260;16.432;2023-08-30T11:20:11;99025.44;;;19.29;61.35
4022;BME280;2025;48.260;16.432;2023-08-30T11:22:40;99025.28;;;19.19;61.33
4022;BME280;2025;48.260;16.432;2023-08-30T11:25:09;99022.91;;;19.23;60.72
4022;BME280;2025;48.260;16.432;2023-08-30T11:27:38;99018.63;;;19.38;61.15
4022;BME280;2025;48.260;16.432;2023-08-30T11:30:06;99027.63;;;19.15;61.59
4022;BME280;2025;48.260;16.432;2023-08-30T11:32:34;99032.22;;;19.20;60.95
4022;BME280;2025;48.260;16.432;2023-08-30T11:35:01;99032.47;;;19.02;61.48
4022;BME280;2025;48.260;16.432;2023-08-30T11:37:28;99023.50;;;18.91;62.42
4022;BME280;2025;48.260;16.432;2023-08-30T11:39:56;99026.09;;;19.03;60.11
4022;BME280;2025;48.260;16.432;2023-08-30T11:42:23;99021.72;;;20.08;57.06
4022;BME280;2025;48.260;16.432;2023-08-30T11:44:51;99017.63;;;20.77;54.41
4022;BME280;2025;48.260;16.432;2023-08-30T11:47:19;99025.66;;;20.77;54.49
4022;BME280;2025;48.260;16.432;2023-08-30T11:49:47;99016.53;;;20.46;54.78
4022;BME280;2025;48.260;16.432;2023-08-30T11:52:15;99031.97;;;19.94;57.35
4022;BME280;2025;48.260;16.432;2023-08-30T11:54:43;99031.66;;;19.35;58.69
4022;BME280;2025;48.260;16.432;2023-08-30T11:57:10;99028.97;;;18.84;60.01
4022;BME280;2025;48.260;16.432;2023-08-30T11:59:37;99025.34;;;18.90;60.71
4022;BME280;2025;48.260;16.432;2023-08-30T12:02:06;99022.94;;;18.89;60.06
4022;BME280;2025;48.260;16.432;2023-08-30T12:04:40;99021.63;;;18.91;59.87
4022;BME280;2025;48.260;16.432;2023-08-30T12:07:07;99024.38;;;18.97;60.40
4022;BME280;2025;48.260;16.432;2023-08-30T12:09:34;99015.97;;;19.05;58.85
4022;BME280;2025;48.260;16.432;2023-08-30T12:12:05;99022.69;;;18.90;59.89
4022;BME280;2025;48.260;16.432;2023-08-30T12:14:33;99023.41;;;19.03;59.31
4022;BME280;2025;48.260;16.432;2023-08-30T12:17:00;99014.78;;;18.95;59.91
4022;BME280;2025;48.260;16.432;2023-08-30T12:19:31;99010.97;;;18.91;60.62
4022;BME280;2025;48.260;16.432;2023-08-30T12:22:03;99011.22;;;19.07;59.74
4022;BME280;2025;48.260;16.432;2023-08-30T12:24:41;99012.06;;;19.29;60.33
4022;BME280;2025;48.260;16.432;2023-08-30T12:27:08;99011.25;;;19.46;58.57
4022;BME280;2025;48.260;16.432;2023-08-30T12:29:35;99009.03;;;19.59;59.76
4022;BME280;2025;48.260;16.432;2023-08-30T12:32:01;99003.28;;;19.68;59.57
4022;BME280;2025;48.260;16.432;2023-08-30T12:34:30;99007.97;;;19.77;57.22
4022;BME280;2025;48.260;16.432;2023-08-30T12:36:57;99007.91;;;19.72;56.89
4022;BME280;2025;48.260;16.432;2023-08-30T12:39:24;99010.16;;;19.64;55.79
4022;BME280;2025;48.260;16.432;2023-08-30T12:41:51;99007.78;;;19.67;56.25
4022;BME280;2025;48.260;16.432;2023-08-30T12:44:18;99006.47;;;19.48;55.80
4022;BME280;2025;48.260;16.432;2023-08-30T12:46:45;99009.66;;;19.28;58.31
4022;BME280;2025;48.260;16.432;2023-08-30T12:49:12;99000.19;;;19.37;57.93
4022;BME280;2025;48.260;16.432;2023-08-30T12:51:40;99013.41;;;19.10;58.00
4022;BME280;2025;48.260;16.432;2023-08-30T12:54:07;99015.41;;;18.74;59.83
4022;BME280;2025;48.260;16.432;2023-08-30T12:56:34;99018.22;;;18.79;60.23
4022;BME280;2025;48.260;16.432;2023-08-30T12:59:01;99013.78;;;19.02;59.26
4022;BME280;2025;48.260;16.432;2023-08-30T13:01:28;98995.34;;;19.17;58.82
4022;BME280;2025;48.260;16.432;2023-08-30T13:03:55;99000.63;;;19.51;58.03
4022;BME280;2025;48.260;16.432;2023-08-30T13:06:22;99001.94;;;20.09;57.51
4022;BME280;2025;48.260;16.432;2023-08-30T13:08:50;99003.53;;;20.32;55.62
4022;BME280;2025;48.260;16.432;2023-08-30T13:11:17;98999.34;;;20.14;55.58
4022;BME280;2025;48.260;16.432;2023-08-30T13:13:44;99005.00;;;19.96;58.09